sensor_id;sensor_type;location;lat;lon;timestamp;P1;durP1;ratioP1;P2;durP2;ratioP2
54263;SDS011;40178;53.042;6.406;2023-04-07T00:01:24;39.13;;;27.77;;
54263;SDS011;40178;53.042;6.406;2023-04-07T00:03:50;40.55;;;28.63;;
54263;SDS011;40178;53.042;6.406;2023-04-07T00:06:16;39.25;;;28.33;;
54263;SDS011;40178;53.042;6.406;2023-04-07T00:08:41;40.92;;;28.75;;
54263;SDS011;40178;53.042;6.406;2023-04-07T00:11:07;41.78;;;27.90;;
54263;SDS011;40178;53.042;6.406;2023-04-07T00:13:33;41.33;;;27.80;;
54263;SDS011;40178;53.042;6.406;2023-04-07T00:15:58;42.60;;;29.98;;
54263;SDS011;40178;53.042;6.406;2023-04-07T00:18:24;44.33;;;29.77;;
54263;SDS011;40178;53.042;6.406;2023-04-07T00:20:50;44.97;;;29.55;;
54263;SDS011;40178;53.042;6.406;2023-04-07T00:23:16;41.72;;;29.10;;
54263;SDS011;40178;53.042;6.406;2023-04-07T00:25:41;45.20;;;30.08;;
54263;SDS011;40178;53.042;6.406;2023-04-07T00:28:07;43.33;;;30.40;;
54263;SDS011;40178;53.042;6.406;2023-04-07T00:30:33;42.78;;;28.67;;
54263;SDS011;40178;53.042;6.406;2023-04-07T00:32:58;47.55;;;30.67;;
54263;SDS011;40178;53.042;6.406;2023-04-07T00:35:24;48.80;;;30.77;;
54263;SDS011;40178;53.042;6.406;2023-04-07T00:37:49;47.85;;;31.42;;
54263;SDS011;40178;53.042;6.406;2023-04-07T00:40:16;45.55;;;29.95;;
54263;SDS011;40178;53.042;6.406;2023-04-07T00:42:42;48.17;;;31.30;;
54263;SDS011;40178;53.042;6.406;2023-04-07T00:45:07;49.38;;;31.42;;
54263;SDS011;40178;53.042;6.406;2023-04-07T00:47:35;48.47;;;31.17;;
54263;SDS011;40178;53.042;6.406;2023-04-07T00:50:02;52.50;;;32.03;;
54263;SDS011;40178;53.042;6.406;2023-04-07T00:52:28;50.58;;;31.05;;
54263;SDS011;40178;53.042;6.406;2023-04-07T00:54:54;51.72;;;32.22;;
54263;SDS011;40178;53.042;6.406;2023-04-07T00:57:20;47.45;;;31.23;;
54263;SDS011;40178;53.042;6.406;2023-04-07T00:59:47;47.15;;;30.65;;
54263;SDS011;40178;53.042;6.406;2023-04-07T01:02:21;49.85;;;32.28;;
54263;SDS011;40178;53.042;6.406;2023-04-07T01:05:00;51.97;;;32.13;;
54263;SDS011;40178;53.042;6.406;2023-04-07T01:07:28;48.78;;;32.70;;
54263;SDS011;40178;53.042;6.406;2023-04-07T01:10:03;48.95;;;32.17;;
54263;SDS011;40178;53.042;6.406;2023-04-07T01:12:35;50.70;;;32.90;;
54263;SDS011;40178;53.042;6.406;2023-04-07T01:15:13;53.50;;;34.00;;
54263;SDS011;40178;53.042;6.406;2023-04-07T01:17:42;48.40;;;31.80;;
54263;SDS011;40178;53.042;6.406;2023-04-07T01:20:13;52.17;;;32.78;;
54263;SDS011;40178;53.042;6.406;2023-04-07T01:22:46;46.33;;;31.42;;
54263;SDS011;40178;53.042;6.406;2023-04-07T01:31:08;47.55;;;32.05;;
54263;SDS011;40178;53.042;6.406;2023-04-07T01:33:36;48.80;;;31.27;;
54263;SDS011;40178;53.042;6.406;2023-04-07T01:36:04;52.63;;;31.20;;
54263;SDS011;40178;53.042;6.406;2023-04-07T01:38:32;47.35;;;31.08;;
54263;SDS011;40178;53.042;6.406;2023-04-07T01:40:58;50.05;;;31.27;;
54263;SDS011;40178;53.042;6.406;2023-04-07T01:43:26;49.53;;;30.63;;
54263;SDS011;40178;53.042;6.406;2023-04-07T01:45:53;51.20;;;30.83;;
54263;SDS011;40178;53.042;6.406;2023-04-07T01:48:20;49.13;;;30.10;;
54263;SDS011;40178;53.042;6.406;2023-04-07T01:50:45;49.78;;;31.92;;
54263;SDS011;40178;53.042;6.406;2023-04-07T01:53:12;46.03;;;29.30;;
54263;SDS011;40178;53.042;6.406;2023-04-07T01:55:41;48.03;;;30.10;;
54263;SDS011;40178;53.042;6.406;2023-04-07T01:58:07;47.28;;;29.13;;
54263;SDS011;40178;53.042;6.406;2023-04-07T02:00:33;49.40;;;29.85;;
54263;SDS011;40178;53.042;6.406;2023-04-07T02:03:08;54.50;;;29.25;;
54263;SDS011;40178;53.042;6.406;2023-04-07T02:05:44;46.13;;;28.15;;
54263;SDS011;40178;53.042;6.406;2023-04-07T02:08:13;42.00;;;27.48;;
54263;SDS011;40178;53.042;6.406;2023-04-07T02:10:42;48.83;;;29.20;;
54263;SDS011;40178;53.042;6.406;2023-04-07T02:13:12;50.80;;;29.77;;
54263;SDS011;40178;53.042;6.406;2023-04-07T02:15:39;46.95;;;28.00;;
54263;SDS011;40178;53.042;6.406;2023-04-07T02:18:06;52.40;;;28.73;;
54263;SDS011;40178;53.042;6.406;2023-04-07T02:20:34;43.42;;;25.23;;
54263;SDS011;40178;53.042;6.406;2023-04-07T02:23:01;42.63;;;26.23;;
54263;SDS011;40178;53.042;6.406;2023-04-07T02:25:28;42.95;;;25.60;;
54263;SDS011;40178;53.042;6.406;2023-04-07T02:27:55;45.45;;;26.27;;
54263;SDS011;40178;53.042;6.406;2023-04-07T02:30:22;43.50;;;25.17;;
54263;SDS011;40178;53.042;6.406;2023-04-07T02:32:48;42.35;;;25.77;;
54263;SDS011;40178;53.042;6.406;2023-04-07T02:35:14;42.00;;;24.75;;
54263;SDS011;40178;53.042;6.406;2023-04-07T02:37:40;39.58;;;24.30;;
54263;SDS011;40178;53.042;6.406;2023-04-07T02:40:07;42.47;;;25.92;;
54263;SDS011;40178;53.042;6.406;2023-04-07T02:42:33;38.58;;;23.83;;
54263;SDS011;40178;53.042;6.406;2023-04-07T02:45:00;39.65;;;23.65;;
54263;SDS011;40178;53.042;6.406;2023-04-07T02:47:26;36.65;;;23.38;;
54263;SDS011;40178;53.042;6.406;2023-04-07T02:49:51;38.45;;;23.42;;
54263;SDS011;40178;53.042;6.406;2023-04-07T02:52:17;40.08;;;23.63;;
54263;SDS011;40178;53.042;6.406;2023-04-07T02:54:43;34.05;;;22.55;;
54263;SDS011;40178;53.042;6.406;2023-04-07T02:57:08;41.30;;;23.98;;
54263;SDS011;40178;53.042;6.406;2023-04-07T02:59:34;37.85;;;22.67;;
54263;SDS011;40178;53.042;6.406;2023-04-07T03:02:00;35.05;;;20.88;;
54263;SDS011;40178;53.042;6.406;2023-04-07T03:04:25;35.78;;;22.42;;
54263;SDS011;40178;53.042;6.406;2023-04-07T03:06:51;38.65;;;22.42;;
54263;SDS011;40178;53.042;6.406;2023-04-07T03:09:17;40.92;;;24.50;;
54263;SDS011;40178;53.042;6.406;2023-04-07T03:11:42;37.35;;;22.05;;
54263;SDS011;40178;53.042;6.406;2023-04-07T03:14:08;38.38;;;22.35;;
54263;SDS011;40178;53.042;6.406;2023-04-07T03:16:34;39.10;;;22.88;;
54263;SDS011;40178;53.042;6.406;2023-04-07T03:18:59;37.78;;;22.88;;
54263;SDS011;40178;53.042;6.406;2023-04-07T03:21:25;38.28;;;23.33;;
54263;SDS011;40178;53.042;6.406;2023-04-07T03:23:52;34.42;;;21.55;;
54263;SDS011;40178;53.042;6.406;2023-04-07T03:26:18;34.97;;;21.38;;
54263;SDS011;40178;53.042;6.406;2023-04-07T03:28:44;35.88;;;22.20;;
54263;SDS011;40178;53.042;6.406;2023-04-07T03:31:10;36.45;;;22.13;;
54263;SDS011;40178;53.042;6.406;2023-04-07T03:33:35;39.50;;;23.35;;
54263;SDS011;40178;53.042;6.406;2023-04-07T03:36:01;41.67;;;23.88;;
54263;SDS011;40178;53.042;6.406;2023-04-07T03:38:26;36.47;;;23.08;;
54263;SDS011;40178;53.042;6.406;2023-04-07T03:40:53;38.17;;;23.42;;
54263;SDS011;40178;53.042;6.406;2023-04-07T03:43:18;39.40;;;22.92;;
54263;SDS011;40178;53.042;6.406;2023-04-07T03:45:44;38.33;;;23.02;;
54263;SDS011;40178;53.042;6.406;2023-04-07T03:48:10;38.92;;;23.42;;
54263;SDS011;40178;53.042;6.406;2023-04-07T03:50:40;36.75;;;23.08;;
54263;SDS011;40178;53.042;6.406;2023-04-07T03:53:06;37.50;;;23.52;;
54263;SDS011;40178;53.042;6.406;2023-04-07T03:55:32;36.92;;;22.80;;
54263;SDS011;40178;53.042;6.406;2023-04-07T03:57:58;39.03;;;24.63;;
54263;SDS011;40178;53.042;6.406;2023-04-07T04:00:24;40.78;;;24.13;;
54263;SDS011;40178;53.042;6.406;2023-04-07T04:02:50;36.35;;;22.92;;
54263;SDS011;40178;53.042;6.406;2023-04-07T04:05:16;40.60;;;23.63;;
54263;SDS011;40178;53.042;6.406;2023-04-07T04:07:42;40.42;;;24.65;;
54263;SDS011;40178;53.042;6.406;2023-04-07T04:10:07;42.53;;;25.45;;
54263;SDS011;40178;53.042;6.406;2023-04-07T04:12:33;47.42;;;25.58;;
54263;SDS011;40178;53.042;6.406;2023-04-07T04:14:59;42.72;;;26.08;;
54263;SDS011;40178;53.042;6.406;2023-04-07T04:17:24;41.63;;;23.98;;
54263;SDS011;40178;53.042;6.406;2023-04-07T04:19:50;42.92;;;24.52;;
54263;SDS011;40178;53.042;6.406;2023-04-07T04:22:16;43.13;;;25.02;;
54263;SDS011;40178;53.042;6.406;2023-04-07T04:24:43;36.17;;;23.40;;
54263;SDS011;40178;53.042;6.406;2023-04-07T04:27:09;35.72;;;23.25;;
54263;SDS011;40178;53.042;6.406;2023-04-07T04:29:35;35.90;;;23.25;;
54263;SDS011;40178;53.042;6.406;2023-04-07T04:32:00;35.22;;;24.20;;
54263;SDS011;40178;53.042;6.406;2023-04-07T04:34:26;36.88;;;23.90;;
54263;SDS011;40178;53.042;6.406;2023-04-07T04:36:52;33.67;;;23.02;;
54263;SDS011;40178;53.042;6.406;2023-04-07T04:39:17;36.42;;;23.10;;
54263;SDS011;40178;53.042;6.406;2023-04-07T04:41:43;45.13;;;24.80;;
54263;SDS011;40178;53.042;6.406;2023-04-07T04:44:09;33.95;;;22.60;;
54263;SDS011;40178;53.042;6.406;2023-04-07T04:46:35;34.10;;;20.35;;
54263;SDS011;40178;53.042;6.406;2023-04-07T04:49:01;35.92;;;20.52;;
54263;SDS011;40178;53.042;6.406;2023-04-07T04:51:26;34.20;;;20.15;;
54263;SDS011;40178;53.042;6.406;2023-04-07T04:53:52;33.30;;;21.08;;
54263;SDS011;40178;53.042;6.406;2023-04-07T04:56:18;37.25;;;22.13;;
54263;SDS011;40178;53.042;6.406;2023-04-07T04:58:43;35.78;;;20.25;;
54263;SDS011;40178;53.042;6.406;2023-04-07T05:01:10;33.97;;;19.67;;
54263;SDS011;40178;53.042;6.406;2023-04-07T05:03:37;32.15;;;20.02;;
54263;SDS011;40178;53.042;6.406;2023-04-07T05:06:02;34.08;;;21.30;;
54263;SDS011;40178;53.042;6.406;2023-04-07T05:08:28;30.27;;;19.60;;
54263;SDS011;40178;53.042;6.406;2023-04-07T05:10:54;31.30;;;20.85;;
54263;SDS011;40178;53.042;6.406;2023-04-07T05:13:20;35.05;;;21.58;;
54263;SDS011;40178;53.042;6.406;2023-04-07T05:15:45;32.00;;;20.25;;
54263;SDS011;40178;53.042;6.406;2023-04-07T05:18:11;32.95;;;20.65;;
54263;SDS011;40178;53.042;6.406;2023-04-07T05:20:37;32.72;;;20.20;;
54263;SDS011;40178;53.042;6.406;2023-04-07T05:23:03;32.92;;;21.38;;
54263;SDS011;40178;53.042;6.406;2023-04-07T05:25:29;34.80;;;22.23;;
54263;SDS011;40178;53.042;6.406;2023-04-07T05:27:54;34.90;;;21.08;;
54263;SDS011;40178;53.042;6.406;2023-04-07T05:30:21;33.90;;;21.30;;
54263;SDS011;40178;53.042;6.406;2023-04-07T05:32:47;36.97;;;22.23;;
54263;SDS011;40178;53.042;6.406;2023-04-07T05:35:12;37.35;;;22.23;;
54263;SDS011;40178;53.042;6.406;2023-04-07T05:37:38;31.38;;;20.75;;
54263;SDS011;40178;53.042;6.406;2023-04-07T05:40:04;35.45;;;21.75;;
54263;SDS011;40178;53.042;6.406;2023-04-07T05:42:30;36.67;;;23.33;;
54263;SDS011;40178;53.042;6.406;2023-04-07T05:44:56;35.42;;;23.63;;
54263;SDS011;40178;53.042;6.406;2023-04-07T05:47:22;29.92;;;15.98;;
54263;SDS011;40178;53.042;6.406;2023-04-07T05:49:47;30.88;;;18.27;;
54263;SDS011;40178;53.042;6.406;2023-04-07T05:52:13;31.13;;;17.58;;
54263;SDS011;40178;53.042;6.406;2023-04-07T05:54:39;32.72;;;18.15;;
54263;SDS011;40178;53.042;6.406;2023-04-07T05:57:05;30.25;;;17.02;;
54263;SDS011;40178;53.042;6.406;2023-04-07T05:59:32;33.80;;;17.98;;
54263;SDS011;40178;53.042;6.406;2023-04-07T06:01:58;34.78;;;18.80;;
54263;SDS011;40178;53.042;6.406;2023-04-07T06:04:23;33.15;;;19.20;;
54263;SDS011;40178;53.042;6.406;2023-04-07T06:06:49;34.00;;;18.60;;
54263;SDS011;40178;53.042;6.406;2023-04-07T06:09:19;34.25;;;19.25;;
54263;SDS011;40178;53.042;6.406;2023-04-07T06:11:47;42.20;;;22.48;;
54263;SDS011;40178;53.042;6.406;2023-04-07T06:14:13;35.70;;;19.42;;
54263;SDS011;40178;53.042;6.406;2023-04-07T06:16:38;38.53;;;21.05;;
54263;SDS011;40178;53.042;6.406;2023-04-07T06:19:04;38.25;;;19.80;;
54263;SDS011;40178;53.042;6.406;2023-04-07T06:21:31;39.13;;;20.00;;
54263;SDS011;40178;53.042;6.406;2023-04-07T06:23:57;34.45;;;19.10;;
54263;SDS011;40178;53.042;6.406;2023-04-07T06:26:23;37.20;;;20.13;;
54263;SDS011;40178;53.042;6.406;2023-04-07T06:28:49;35.80;;;19.05;;
54263;SDS011;40178;53.042;6.406;2023-04-07T06:31:15;34.30;;;19.77;;
54263;SDS011;40178;53.042;6.406;2023-04-07T06:33:42;39.10;;;21.15;;
54263;SDS011;40178;53.042;6.406;2023-04-07T06:36:08;37.83;;;20.23;;
54263;SDS011;40178;53.042;6.406;2023-04-07T06:38:34;40.92;;;20.58;;
54263;SDS011;40178;53.042;6.406;2023-04-07T06:40:59;30.58;;;18.45;;
54263;SDS011;40178;53.042;6.406;2023-04-07T06:43:25;37.28;;;19.23;;
54263;SDS011;40178;53.042;6.406;2023-04-07T06:45:50;38.90;;;20.55;;
54263;SDS011;40178;53.042;6.406;2023-04-07T06:48:16;38.97;;;19.75;;
54263;SDS011;40178;53.042;6.406;2023-04-07T06:50:45;37.15;;;19.42;;
54263;SDS011;40178;53.042;6.406;2023-04-07T06:53:11;37.63;;;19.58;;
54263;SDS011;40178;53.042;6.406;2023-04-07T06:55:37;34.05;;;19.48;;
54263;SDS011;40178;53.042;6.406;2023-04-07T06:58:02;34.00;;;18.73;;
54263;SDS011;40178;53.042;6.406;2023-04-07T07:00:28;35.92;;;20.25;;
54263;SDS011;40178;53.042;6.406;2023-04-07T07:02:55;31.40;;;18.60;;
54263;SDS011;40178;53.042;6.406;2023-04-07T07:05:21;33.65;;;19.00;;
54263;SDS011;40178;53.042;6.406;2023-04-07T07:07:47;35.45;;;20.58;;
54263;SDS011;40178;53.042;6.406;2023-04-07T07:10:13;35.38;;;18.63;;
54263;SDS011;40178;53.042;6.406;2023-04-07T07:12:39;34.38;;;19.13;;
54263;SDS011;40178;53.042;6.406;2023-04-07T07:15:05;36.13;;;19.92;;
54263;SDS011;40178;53.042;6.406;2023-04-07T07:17:31;29.48;;;17.08;;
54263;SDS011;40178;53.042;6.406;2023-04-07T07:19:57;32.05;;;18.40;;
54263;SDS011;40178;53.042;6.406;2023-04-07T07:22:22;33.20;;;18.95;;
54263;SDS011;40178;53.042;6.406;2023-04-07T07:24:48;32.03;;;19.65;;
54263;SDS011;40178;53.042;6.406;2023-04-07T07:27:15;35.17;;;18.75;;
54263;SDS011;40178;53.042;6.406;2023-04-07T07:29:40;34.30;;;18.25;;
54263;SDS011;40178;53.042;6.406;2023-04-07T07:32:06;32.30;;;18.08;;
54263;SDS011;40178;53.042;6.406;2023-04-07T07:34:32;32.65;;;18.50;;
54263;SDS011;40178;53.042;6.406;2023-04-07T07:36:57;30.30;;;17.73;;
54263;SDS011;40178;53.042;6.406;2023-04-07T07:39:24;29.95;;;17.08;;
54263;SDS011;40178;53.042;6.406;2023-04-07T07:41:50;30.70;;;17.73;;
54263;SDS011;40178;53.042;6.406;2023-04-07T07:44:16;31.83;;;17.48;;
54263;SDS011;40178;53.042;6.406;2023-04-07T07:46:44;27.92;;;16.88;;
54263;SDS011;40178;53.042;6.406;2023-04-07T07:49:10;33.03;;;17.52;;
54263;SDS011;40178;53.042;6.406;2023-04-07T07:51:35;30.80;;;17.60;;
54263;SDS011;40178;53.042;6.406;2023-04-07T07:54:01;27.35;;;17.00;;
54263;SDS011;40178;53.042;6.406;2023-04-07T07:56:27;29.77;;;16.85;;
54263;SDS011;40178;53.042;6.406;2023-04-07T07:58:53;27.17;;;16.20;;
54263;SDS011;40178;53.042;6.406;2023-04-07T08:01:18;25.15;;;15.10;;
54263;SDS011;40178;53.042;6.406;2023-04-07T08:03:44;26.92;;;16.48;;
54263;SDS011;40178;53.042;6.406;2023-04-07T08:06:10;26.92;;;15.60;;
54263;SDS011;40178;53.042;6.406;2023-04-07T08:08:36;32.70;;;18.20;;
54263;SDS011;40178;53.042;6.406;2023-04-07T08:11:01;26.25;;;16.27;;
54263;SDS011;40178;53.042;6.406;2023-04-07T08:13:27;26.92;;;14.85;;
54263;SDS011;40178;53.042;6.406;2023-04-07T08:15:53;28.15;;;17.63;;
54263;SDS011;40178;53.042;6.406;2023-04-07T08:18:18;26.35;;;15.82;;
54263;SDS011;40178;53.042;6.406;2023-04-07T08:20:44;22.38;;;14.35;;
54263;SDS011;40178;53.042;6.406;2023-04-07T08:23:10;26.27;;;15.13;;
54263;SDS011;40178;53.042;6.406;2023-04-07T08:25:36;23.48;;;14.05;;
54263;SDS011;40178;53.042;6.406;2023-04-07T08:28:04;22.90;;;13.88;;
54263;SDS011;40178;53.042;6.406;2023-04-07T08:30:29;24.10;;;14.38;;
54263;SDS011;40178;53.042;6.406;2023-04-07T08:32:55;24.45;;;13.98;;
54263;SDS011;40178;53.042;6.406;2023-04-07T08:35:21;21.48;;;12.80;;
54263;SDS011;40178;53.042;6.406;2023-04-07T08:37:47;24.77;;;13.73;;
54263;SDS011;40178;53.042;6.406;2023-04-07T08:40:13;20.85;;;13.13;;
54263;SDS011;40178;53.042;6.406;2023-04-07T08:42:40;21.98;;;12.50;;
54263;SDS011;40178;53.042;6.406;2023-04-07T08:45:07;20.77;;;12.75;;
54263;SDS011;40178;53.042;6.406;2023-04-07T08:47:34;19.55;;;12.07;;
54263;SDS011;40178;53.042;6.406;2023-04-07T08:50:02;19.25;;;12.20;;
54263;SDS011;40178;53.042;6.406;2023-04-07T08:52:33;20.20;;;12.20;;
54263;SDS011;40178;53.042;6.406;2023-04-07T08:55:10;20.23;;;11.75;;
54263;SDS011;40178;53.042;6.406;2023-04-07T08:57:36;18.15;;;11.63;;
54263;SDS011;40178;53.042;6.406;2023-04-07T09:00:03;19.45;;;11.38;;
54263;SDS011;40178;53.042;6.406;2023-04-07T09:02:33;17.15;;;10.75;;
54263;SDS011;40178;53.042;6.406;2023-04-07T09:05:01;18.63;;;11.45;;
54263;SDS011;40178;53.042;6.406;2023-04-07T09:07:30;17.58;;;10.18;;
54263;SDS011;40178;53.042;6.406;2023-04-07T09:09:57;15.90;;;10.30;;
54263;SDS011;40178;53.042;6.406;2023-04-07T09:12:23;16.83;;;10.70;;
54263;SDS011;40178;53.042;6.406;2023-04-07T09:14:48;16.27;;;10.15;;
54263;SDS011;40178;53.042;6.406;2023-04-07T09:17:14;17.45;;;10.25;;
54263;SDS011;40178;53.042;6.406;2023-04-07T09:19:40;16.52;;;9.95;;
54263;SDS011;40178;53.042;6.406;2023-04-07T09:22:05;15.00;;;9.45;;
54263;SDS011;40178;53.042;6.406;2023-04-07T09:24:32;15.13;;;9.75;;
54263;SDS011;40178;53.042;6.406;2023-04-07T09:27:13;14.05;;;8.57;;
54263;SDS011;40178;53.042;6.406;2023-04-07T09:29:41;14.73;;;8.80;;
54263;SDS011;40178;53.042;6.406;2023-04-07T09:32:08;15.02;;;8.80;;
54263;SDS011;40178;53.042;6.406;2023-04-07T09:34:39;13.50;;;8.52;;
54263;SDS011;40178;53.042;6.406;2023-04-07T09:37:05;13.27;;;8.25;;
54263;SDS011;40178;53.042;6.406;2023-04-07T09:39:33;15.35;;;9.30;;
54263;SDS011;40178;53.042;6.406;2023-04-07T09:42:18;13.57;;;7.22;;
54263;SDS011;40178;53.042;6.406;2023-04-07T09:44:44;11.55;;;7.25;;
54263;SDS011;40178;53.042;6.406;2023-04-07T09:47:10;11.85;;;7.70;;
54263;SDS011;40178;53.042;6.406;2023-04-07T09:49:47;12.40;;;7.40;;
54263;SDS011;40178;53.042;6.406;2023-04-07T09:52:15;10.95;;;6.72;;
54263;SDS011;40178;53.042;6.406;2023-04-07T09:54:42;11.75;;;7.25;;
54263;SDS011;40178;53.042;6.406;2023-04-07T09:57:08;11.93;;;6.85;;
54263;SDS011;40178;53.042;6.406;2023-04-07T09:59:36;11.35;;;6.22;;
54263;SDS011;40178;53.042;6.406;2023-04-07T10:02:04;10.55;;;6.10;;
54263;SDS011;40178;53.042;6.406;2023-04-07T10:04:30;11.10;;;6.50;;
54263;SDS011;40178;53.042;6.406;2023-04-07T10:06:56;12.45;;;6.65;;
54263;SDS011;40178;53.042;6.406;2023-04-07T10:09:27;13.00;;;7.88;;
54263;SDS011;40178;53.042;6.406;2023-04-07T10:11:54;12.95;;;7.78;;
54263;SDS011;40178;53.042;6.406;2023-04-07T10:14:21;13.68;;;7.75;;
54263;SDS011;40178;53.042;6.406;2023-04-07T10:16:55;10.50;;;6.20;;
54263;SDS011;40178;53.042;6.406;2023-04-07T10:19:21;12.10;;;7.15;;
54263;SDS011;40178;53.042;6.406;2023-04-07T10:21:49;10.77;;;6.47;;
54263;SDS011;40178;53.042;6.406;2023-04-07T10:27:12;10.32;;;5.80;;
54263;SDS011;40178;53.042;6.406;2023-04-07T10:29:42;11.35;;;5.95;;
54263;SDS011;40178;53.042;6.406;2023-04-07T10:32:10;10.48;;;6.47;;
54263;SDS011;40178;53.042;6.406;2023-04-07T10:37:14;9.98;;;5.97;;
54263;SDS011;40178;53.042;6.406;2023-04-07T10:39:44;10.98;;;6.72;;
54263;SDS011;40178;53.042;6.406;2023-04-07T10:42:52;9.80;;;6.22;;
54263;SDS011;40178;53.042;6.406;2023-04-07T10:45:01;11.07;;;6.53;;
54263;SDS011;40178;53.042;6.406;2023-04-07T10:47:30;10.48;;;6.10;;
54263;SDS011;40178;53.042;6.406;2023-04-07T10:52:42;10.75;;;6.15;;
54263;SDS011;40178;53.042;6.406;2023-04-07T11:03:26;9.60;;;5.88;;
54263;SDS011;40178;53.042;6.406;2023-04-07T11:06:01;11.00;;;6.18;;
54263;SDS011;40178;53.042;6.406;2023-04-07T11:08:35;11.23;;;6.05;;
54263;SDS011;40178;53.042;6.406;2023-04-07T11:11:09;11.43;;;6.55;;
54263;SDS011;40178;53.042;6.406;2023-04-07T11:13:39;12.07;;;6.47;;
54263;SDS011;40178;53.042;6.406;2023-04-07T11:16:10;10.82;;;6.30;;
54263;SDS011;40178;53.042;6.406;2023-04-07T11:18:37;10.48;;;6.13;;
54263;SDS011;40178;53.042;6.406;2023-04-07T11:21:04;10.80;;;6.28;;
54263;SDS011;40178;53.042;6.406;2023-04-07T11:23:39;10.50;;;6.13;;
54263;SDS011;40178;53.042;6.406;2023-04-07T11:26:07;10.05;;;6.25;;
54263;SDS011;40178;53.042;6.406;2023-04-07T11:28:35;11.63;;;6.95;;
54263;SDS011;40178;53.042;6.406;2023-04-07T11:31:23;12.23;;;6.43;;
54263;SDS011;40178;53.042;6.406;2023-04-07T11:33:53;12.27;;;6.53;;
54263;SDS011;40178;53.042;6.406;2023-04-07T11:36:27;12.73;;;6.80;;
54263;SDS011;40178;53.042;6.406;2023-04-07T11:38:57;10.15;;;5.88;;
54263;SDS011;40178;53.042;6.406;2023-04-07T11:41:25;14.30;;;8.20;;
54263;SDS011;40178;53.042;6.406;2023-04-07T11:44:04;10.43;;;6.32;;
54263;SDS011;40178;53.042;6.406;2023-04-07T11:46:35;9.98;;;5.80;;
54263;SDS011;40178;53.042;6.406;2023-04-07T11:49:11;9.43;;;5.32;;
54263;SDS011;40178;53.042;6.406;2023-04-07T11:51:38;11.30;;;6.03;;
54263;SDS011;40178;53.042;6.406;2023-04-07T11:54:05;9.80;;;5.38;;
54263;SDS011;40178;53.042;6.406;2023-04-07T11:56:40;10.00;;;5.60;;
54263;SDS011;40178;53.042;6.406;2023-04-07T11:59:19;8.93;;;4.85;;
54263;SDS011;40178;53.042;6.406;2023-04-07T12:01:47;11.32;;;5.78;;
54263;SDS011;40178;53.042;6.406;2023-04-07T12:04:14;9.18;;;5.07;;
54263;SDS011;40178;53.042;6.406;2023-04-07T12:06:41;8.98;;;4.47;;
54263;SDS011;40178;53.042;6.406;2023-04-07T12:09:19;7.78;;;4.75;;
54263;SDS011;40178;53.042;6.406;2023-04-07T12:11:53;8.75;;;4.43;;
54263;SDS011;40178;53.042;6.406;2023-04-07T12:14:20;8.73;;;4.97;;
54263;SDS011;40178;53.042;6.406;2023-04-07T12:16:45;9.82;;;5.28;;
54263;SDS011;40178;53.042;6.406;2023-04-07T12:19:11;8.25;;;4.35;;
54263;SDS011;40178;53.042;6.406;2023-04-07T12:21:37;9.50;;;4.75;;
54263;SDS011;40178;53.042;6.406;2023-04-07T12:24:02;9.63;;;5.00;;
54263;SDS011;40178;53.042;6.406;2023-04-07T12:26:28;8.23;;;4.70;;
54263;SDS011;40178;53.042;6.406;2023-04-07T12:28:53;8.52;;;4.47;;
54263;SDS011;40178;53.042;6.406;2023-04-07T12:31:20;8.25;;;4.88;;
54263;SDS011;40178;53.042;6.406;2023-04-07T12:33:46;9.02;;;4.78;;
54263;SDS011;40178;53.042;6.406;2023-04-07T12:36:11;11.00;;;5.75;;
54263;SDS011;40178;53.042;6.406;2023-04-07T12:38:37;9.65;;;5.22;;
54263;SDS011;40178;53.042;6.406;2023-04-07T12:41:03;9.23;;;5.15;;
54263;SDS011;40178;53.042;6.406;2023-04-07T12:43:31;8.57;;;5.18;;
54263;SDS011;40178;53.042;6.406;2023-04-07T12:45:57;14.77;;;7.93;;
54263;SDS011;40178;53.042;6.406;2023-04-07T12:48:23;8.20;;;4.75;;
54263;SDS011;40178;53.042;6.406;2023-04-07T12:50:51;8.35;;;4.80;;
54263;SDS011;40178;53.042;6.406;2023-04-07T12:53:17;9.68;;;5.22;;
54263;SDS011;40178;53.042;6.406;2023-04-07T12:55:42;8.88;;;5.10;;
54263;SDS011;40178;53.042;6.406;2023-04-07T12:58:08;8.32;;;4.93;;
54263;SDS011;40178;53.042;6.406;2023-04-07T13:00:34;9.38;;;5.15;;
54263;SDS011;40178;53.042;6.406;2023-04-07T13:02:59;8.65;;;4.90;;
54263;SDS011;40178;53.042;6.406;2023-04-07T13:05:27;8.50;;;4.88;;
54263;SDS011;40178;53.042;6.406;2023-04-07T13:07:53;9.20;;;5.25;;
54263;SDS011;40178;53.042;6.406;2023-04-07T13:10:18;8.05;;;4.57;;
54263;SDS011;40178;53.042;6.406;2023-04-07T13:12:45;7.30;;;4.00;;
54263;SDS011;40178;53.042;6.406;2023-04-07T13:15:11;7.53;;;4.70;;
54263;SDS011;40178;53.042;6.406;2023-04-07T13:17:36;7.65;;;3.92;;
54263;SDS011;40178;53.042;6.406;2023-04-07T13:20:03;7.95;;;4.30;;
54263;SDS011;40178;53.042;6.406;2023-04-07T13:22:30;8.68;;;4.60;;
54263;SDS011;40178;53.042;6.406;2023-04-07T13:24:55;8.07;;;4.20;;
54263;SDS011;40178;53.042;6.406;2023-04-07T13:27:21;8.05;;;4.35;;
54263;SDS011;40178;53.042;6.406;2023-04-07T13:29:46;8.23;;;4.13;;
54263;SDS011;40178;53.042;6.406;2023-04-07T13:32:13;7.25;;;3.75;;
54263;SDS011;40178;53.042;6.406;2023-04-07T13:34:39;6.82;;;4.05;;
54263;SDS011;40178;53.042;6.406;2023-04-07T13:37:05;7.97;;;4.07;;
54263;SDS011;40178;53.042;6.406;2023-04-07T13:39:31;7.03;;;4.05;;
54263;SDS011;40178;53.042;6.406;2023-04-07T13:41:57;7.90;;;4.50;;
54263;SDS011;40178;53.042;6.406;2023-04-07T13:44:24;6.97;;;3.83;;
54263;SDS011;40178;53.042;6.406;2023-04-07T13:46:50;6.45;;;3.65;;
54263;SDS011;40178;53.042;6.406;2023-04-07T13:49:16;6.97;;;3.88;;
54263;SDS011;40178;53.042;6.406;2023-04-07T13:51:42;6.78;;;3.55;;
54263;SDS011;40178;53.042;6.406;2023-04-07T13:54:08;7.03;;;3.42;;
54263;SDS011;40178;53.042;6.406;2023-04-07T13:56:34;7.93;;;3.60;;
54263;SDS011;40178;53.042;6.406;2023-04-07T13:59:02;6.30;;;3.58;;
54263;SDS011;40178;53.042;6.406;2023-04-07T14:01:28;7.55;;;4.00;;
54263;SDS011;40178;53.042;6.406;2023-04-07T14:03:54;7.60;;;3.70;;
54263;SDS011;40178;53.042;6.406;2023-04-07T14:06:21;6.78;;;3.92;;
54263;SDS011;40178;53.042;6.406;2023-04-07T14:08:47;6.85;;;3.92;;
54263;SDS011;40178;53.042;6.406;2023-04-07T14:11:16;6.63;;;3.63;;
54263;SDS011;40178;53.042;6.406;2023-04-07T14:13:42;8.40;;;4.25;;
54263;SDS011;40178;53.042;6.406;2023-04-07T14:16:08;7.07;;;3.85;;
54263;SDS011;40178;53.042;6.406;2023-04-07T14:18:34;7.35;;;3.65;;
54263;SDS011;40178;53.042;6.406;2023-04-07T14:21:01;7.47;;;3.97;;
54263;SDS011;40178;53.042;6.406;2023-04-07T14:23:27;8.30;;;4.03;;
54263;SDS011;40178;53.042;6.406;2023-04-07T14:25:53;6.97;;;4.18;;
54263;SDS011;40178;53.042;6.406;2023-04-07T14:28:19;9.05;;;4.10;;
54263;SDS011;40178;53.042;6.406;2023-04-07T14:30:45;9.27;;;4.10;;
54263;SDS011;40178;53.042;6.406;2023-04-07T14:33:11;9.15;;;4.80;;
54263;SDS011;40178;53.042;6.406;2023-04-07T14:35:37;9.00;;;4.60;;
54263;SDS011;40178;53.042;6.406;2023-04-07T14:38:03;7.65;;;4.22;;
54263;SDS011;40178;53.042;6.406;2023-04-07T14:40:29;7.80;;;4.47;;
54263;SDS011;40178;53.042;6.406;2023-04-07T14:42:55;7.90;;;4.82;;
54263;SDS011;40178;53.042;6.406;2023-04-07T14:45:23;8.57;;;4.85;;
54263;SDS011;40178;53.042;6.406;2023-04-07T14:47:48;8.13;;;5.03;;
54263;SDS011;40178;53.042;6.406;2023-04-07T14:50:14;7.75;;;4.80;;